Alexander 3 — SW6137 — position and weather

sailwx.info

Track history (hours):
 
Tides and Currents Weather Stations Pressure Air Temp Water Temp Dewpoint Dewpoint Depression Visibility Wind Speed Wind Dir Waves Ship Positions

Alexander 3

Last reported at 2016-Feb-08 01:33 UTC. Time now 2016-Feb-08 02:03 UTC.
Position N 37°56' E 023°37'.

Length 38 m; draft 5.6 m.

Type: Tug. MMSI: 240733000.

Date/timePositionNaut miles runAvg speedWind from/ knotsBaromVisibWave heightAir tempDewpointWater temp
2016-Feb-08 01:33N 37°56' E 023°37'0 0.0
2016-Feb-08 00:33N 37°56' E 023°37'0 0.0
2016-Feb-07 23:33N 37°56' E 023°37'0 0.0
2016-Feb-07 22:33N 37°56' E 023°37'1 1.0
2016-Feb-07 21:33N 37°57' E 023°36'1 1.0
2016-Feb-07 20:34N 37°57' E 023°35'2 1.5
2016-Feb-07 19:33N 37°57' E 023°37'0 0.2
2016-Feb-07 18:33N 37°58' E 023°36'0 0.2
2016-Feb-07 17:33N 37°57' E 023°37'0 0.0
2016-Feb-07 16:33N 37°57' E 023°37'0 0.0
2016-Feb-07 15:33N 37°57' E 023°37'0 0.0
2016-Feb-07 14:33N 37°57' E 023°37'0 0.0
2016-Feb-07 13:33N 37°57' E 023°37'0 0.0
2016-Feb-07 12:33N 37°57' E 023°37'0 0.0
2016-Feb-07 11:33N 37°57' E 023°37'0 0.0
2016-Feb-07 10:33N 37°57' E 023°37'0 0.0
2016-Feb-07 09:33N 37°57' E 023°37'1 0.8
2016-Feb-07 08:33N 37°57' E 023°36'1 0.8
2016-Feb-07 07:33N 37°57' E 023°37'0 0.0
2016-Feb-07 06:33N 37°57' E 023°37'2 1.7
2016-Feb-07 05:34N 37°56' E 023°36'1 0.8
2016-Feb-07 04:34N 37°56' E 023°37'0 0.0
2016-Feb-07 03:33N 37°56' E 023°37'2 0.1
2016-Feb-06 08:33N 37°57' E 023°37'0 0.0
2016-Feb-06 07:34N 37°57' E 023°37'1 0.9
2016-Feb-06 06:33N 37°57' E 023°36'1 0.6
2016-Feb-06 05:33N 37°57' E 023°35'0 0.3
2016-Feb-06 04:34N 37°57' E 023°35'0 0.0
2016-Feb-06 03:33N 37°57' E 023°35'0 0.0
2016-Feb-06 02:33N 37°57' E 023°35'0 0.0
2016-Feb-06 01:32N 37°57' E 023°35'0 0.0
2016-Feb-06 00:34N 37°57' E 023°35'0 0.0
2016-Feb-05 23:34N 37°57' E 023°35'0 0.0
2016-Feb-05 22:34N 37°57' E 023°35'0 0.0
2016-Feb-05 21:33N 37°57' E 023°35'2 2.3
2016-Feb-05 20:33N 37°56' E 023°37'0 0.0
2016-Feb-05 19:33N 37°56' E 023°37'2 2.0
2016-Feb-05 18:34N 37°57' E 023°35'2 1.7
2016-Feb-05 17:34N 37°55' E 023°35'2 1.9
2016-Feb-05 16:33N 37°57' E 023°35'1 1.1
2016-Feb-05 15:34N 37°57' E 023°37'0 0.0
2016-Feb-05 14:33N 37°57' E 023°37'0 0.0
2016-Feb-05 13:34N 37°57' E 023°37'1 0.7
2016-Feb-05 12:34N 37°57' E 023°36'0 0.3
2016-Feb-05 11:34N 37°57' E 023°36'1 1.0
2016-Feb-05 10:34N 37°56' E 023°36'1 1.4
2016-Feb-05 09:34N 37°57' E 023°36'0 0.4
2016-Feb-05 08:33N 37°57' E 023°35'2 1.9
2016-Feb-05 07:33N 37°56' E 023°37'2 0.1
2016-Feb-04 02:33N 37°57' E 023°35'5 4.5
2016-Feb-04 01:33N 38°01' E 023°36'0 0.0
2016-Feb-04 00:34N 38°01' E 023°35'0 0.0
2016-Feb-03 23:34N 38°01' E 023°36'0 0.0
2016-Feb-03 22:33N 38°01' E 023°36'0 0.0
2016-Feb-03 21:34N 38°01' E 023°36'0 0.0
2016-Feb-03 20:33N 38°01' E 023°36'0 0.0
2016-Feb-03 19:34N 38°01' E 023°36'0 0.0
2016-Feb-03 18:33N 38°01' E 023°35'0 0.0
2016-Feb-03 17:33N 38°01' E 023°36'0 0.0
2016-Feb-03 16:33N 38°01' E 023°36'0 0.0
2016-Feb-03 15:33N 38°01' E 023°36'0 0.0
2016-Feb-03 14:33N 38°01' E 023°36'0 0.0
2016-Feb-03 13:32N 38°01' E 023°36'0 0.0
2016-Feb-03 12:33N 38°01' E 023°36'0 0.0
2016-Feb-03 11:34N 38°01' E 023°36'0 0.0
2016-Feb-03 10:33N 38°01' E 023°36'0 0.0
2016-Feb-03 09:33N 38°01' E 023°36'0 0.0
2016-Feb-03 08:33N 38°01' E 023°36'0 0.0
2016-Feb-03 07:33N 38°01' E 023°36'0 0.0
2016-Feb-03 06:33N 38°01' E 023°36'0 0.0
2016-Feb-03 05:33N 38°01' E 023°36'0 0.0
2016-Feb-03 04:33N 38°01' E 023°36'0 0.0
2016-Feb-03 03:34N 38°01' E 023°36'0 0.0
2016-Feb-03 02:33N 38°01' E 023°36'0 0.0
2016-Feb-03 01:33N 38°01' E 023°36'0 0.0
2016-Feb-03 00:33N 38°01' E 023°36'0 0.0
2016-Feb-02 23:33N 38°01' E 023°36'0 0.0
2016-Feb-02 22:34N 38°01' E 023°36'0 0.0
2016-Feb-02 21:31N 38°01' E 023°36'0 0.0
2016-Feb-02 20:32N 38°01' E 023°36'0 0.0
2016-Feb-02 19:33N 38°01' E 023°36'0 0.0
2016-Feb-02 18:33N 38°01' E 023°36'0 0.0
2016-Feb-02 17:34N 38°01' E 023°36'0 0.0
2016-Feb-02 16:34N 38°01' E 023°36'0 0.0
2016-Feb-02 15:33N 38°01' E 023°36'0 0.0
2016-Feb-02 14:33N 38°01' E 023°36'0 0.0
2016-Feb-02 13:34N 38°01' E 023°36'4 4.3
2016-Feb-02 12:33N 37°57' E 023°36'0 0.0
2016-Feb-02 11:33N 37°57' E 023°36'1 0.9
2016-Feb-02 10:33N 37°57' E 023°35'1 0.9
2016-Feb-02 09:33N 37°57' E 023°36'0 0.0
2016-Feb-02 08:32N 37°57' E 023°36'1 1.4
2016-Feb-02 07:33N 37°56' E 023°37'0 0.0
2016-Feb-02 06:33N 37°56' E 023°37'0 0.0
2016-Feb-02 05:33N 37°56' E 023°37'0 0.1
2016-Feb-02 04:34N 37°56' E 023°37'0 0.1
2016-Feb-02 03:33N 37°56' E 023°37'0 0.0
2016-Feb-02 02:33N 37°56' E 023°37'0 0.0
2016-Feb-02 01:34N 37°56' E 023°37'0 0.0
2016-Feb-02 00:33N 37°56' E 023°37'0 0.0
2016-Feb-01 23:33N 37°56' E 023°37'0 0.0
2016-Feb-01 22:33N 37°56' E 023°37'0 0.0
2016-Feb-01 21:34N 37°56' E 023°37'0 0.0
2016-Feb-01 20:33N 37°56' E 023°37'1 0.7
2016-Feb-01 19:33N 37°56' E 023°37'1 1.0
2016-Feb-01 18:33N 37°57' E 023°37'0 0.0
2016-Feb-01 17:33N 37°57' E 023°37'1 1.2
2016-Feb-01 16:34N 37°57' E 023°35'1 1.2
2016-Feb-01 15:33N 37°57' E 023°37'0 0.0
2016-Feb-01 14:33N 37°57' E 023°37'0 0.0
2016-Feb-01 13:32N 37°57' E 023°37'0 0.0
2016-Feb-01 12:33N 37°57' E 023°37'1 1.1
2016-Feb-01 11:33N 37°57' E 023°35'1 0.9
2016-Feb-01 10:33N 37°57' E 023°36'1 1.1
2016-Feb-01 09:33N 37°57' E 023°35'1 1.1
2016-Feb-01 08:34N 37°57' E 023°36'0 0.2
2016-Feb-01 07:33N 37°57' E 023°36'1 0.9
2016-Feb-01 06:34N 37°56' E 023°37'0 0.5
2016-Feb-01 05:33N 37°56' E 023°37'0 0.0
2016-Feb-01 04:33N 37°56' E 023°37'0 0.0
2016-Feb-01 03:33N 37°56' E 023°37'0 0.0
2016-Jan-30 22:22N 37°56' E 023°37'2 2.5
2016-Jan-30 21:33N 37°56' E 023°35'2 2.1
2016-Jan-30 20:33N 37°57' E 023°37'0 0.0
2016-Jan-30 19:33N 37°57' E 023°37'0 0.0
2016-Jan-30 18:33N 37°57' E 023°37'0 0.0
2016-Jan-30 17:33N 37°57' E 023°37'0 0.0
2016-Jan-30 16:33N 37°57' E 023°37'0 0.0
2016-Jan-30 15:33N 37°57' E 023°37'0 0.0
2016-Jan-30 14:33N 37°57' E 023°37'2 1.6
2016-Jan-30 13:33N 37°57' E 023°35'1 1.0
2016-Jan-30 12:33N 37°57' E 023°36'2 1.6
2016-Jan-30 11:34N 37°56' E 023°36'1 0.9
2016-Jan-30 10:33N 37°56' E 023°37'0 0.0
2016-Jan-30 09:33N 37°56' E 023°37'0 0.0
2016-Jan-30 08:33N 37°56' E 023°37'0 0.0
2016-Jan-30 07:33N 37°56' E 023°37'0 0.0
2016-Jan-30 06:32N 37°56' E 023°37'0 0.0
2016-Jan-30 05:33N 37°56' E 023°37'0 0.0
2016-Jan-30 04:33N 37°56' E 023°37'0 0.0
2016-Jan-30 03:33N 37°56' E 023°37'2 2.0
2016-Jan-30 02:33N 37°56' E 023°35'2 1.7
2016-Jan-30 01:33N 37°57' E 023°37'0 0.0
2016-Jan-30 00:33N 37°57' E 023°37'0 0.0
2016-Jan-29 23:33N 37°57' E 023°37'0 0.0
2016-Jan-29 22:33N 37°57' E 023°37'0 0.0
2016-Jan-29 21:33N 37°57' E 023°37'0 0.0
2016-Jan-29 20:33N 37°57' E 023°37'0 0.0
2016-Jan-29 19:33N 37°57' E 023°37'0 0.0
2016-Jan-29 18:33N 37°57' E 023°37'0 0.0
2016-Jan-29 17:33N 37°57' E 023°37'0 0.0
2016-Jan-29 16:33N 37°57' E 023°37'0 0.0
2016-Jan-29 15:33N 37°57' E 023°37'0 0.0
2016-Jan-29 14:33N 37°57' E 023°37'1 0.6
2016-Jan-29 13:33N 37°57' E 023°36'1 0.6
2016-Jan-29 12:33N 37°57' E 023°37'0 0.0
2016-Jan-29 11:33N 37°57' E 023°37'0 0.3
2016-Jan-29 10:33N 37°57' E 023°36'1 1.1
2016-Jan-29 09:34N 37°57' E 023°35'1 1.0
2016-Jan-29 08:33N 37°56' E 023°36'1 1.5
2016-Jan-29 07:33N 37°56' E 023°37'  
Track history (hours):
 
Tides and Currents Weather Stations Pressure Air Temp Water Temp Dewpoint Dewpoint Depression Visibility Wind Speed Wind Dir Waves Ship Positions

Alexander 3

Last reported at 2016-Feb-08 01:33 UTC. Time now 2016-Feb-08 02:03 UTC.
Position N 37°56' E 023°37'.

Length 38 m; draft 5.6 m.

Type: Tug. MMSI: 240733000.

Date/timePositionNaut miles runAvg speedWind from/ knotsBaromVisibWave heightAir tempDewpointWater temp
2016-Feb-08 01:33N 37°56' E 023°37'0 0.0
2016-Feb-08 00:33N 37°56' E 023°37'0 0.0
2016-Feb-07 23:33N 37°56' E 023°37'0 0.0
2016-Feb-07 22:33N 37°56' E 023°37'1 1.0
2016-Feb-07 21:33N 37°57' E 023°36'1 1.0
2016-Feb-07 20:34N 37°57' E 023°35'2 1.5
2016-Feb-07 19:33N 37°57' E 023°37'0 0.2
2016-Feb-07 18:33N 37°58' E 023°36'0 0.2
2016-Feb-07 17:33N 37°57' E 023°37'0 0.0
2016-Feb-07 16:33N 37°57' E 023°37'0 0.0
2016-Feb-07 15:33N 37°57' E 023°37'0 0.0
2016-Feb-07 14:33N 37°57' E 023°37'0 0.0
2016-Feb-07 13:33N 37°57' E 023°37'0 0.0
2016-Feb-07 12:33N 37°57' E 023°37'0 0.0
2016-Feb-07 11:33N 37°57' E 023°37'0 0.0
2016-Feb-07 10:33N 37°57' E 023°37'0 0.0
2016-Feb-07 09:33N 37°57' E 023°37'1 0.8
2016-Feb-07 08:33N 37°57' E 023°36'1 0.8
2016-Feb-07 07:33N 37°57' E 023°37'0 0.0
2016-Feb-07 06:33N 37°57' E 023°37'2 1.7
2016-Feb-07 05:34N 37°56' E 023°36'1 0.8
2016-Feb-07 04:34N 37°56' E 023°37'0 0.0
2016-Feb-07 03:33N 37°56' E 023°37'2 0.1
2016-Feb-06 08:33N 37°57' E 023°37'0 0.0
2016-Feb-06 07:34N 37°57' E 023°37'1 0.9
2016-Feb-06 06:33N 37°57' E 023°36'1 0.6
2016-Feb-06 05:33N 37°57' E 023°35'0 0.3
2016-Feb-06 04:34N 37°57' E 023°35'0 0.0
2016-Feb-06 03:33N 37°57' E 023°35'0 0.0
2016-Feb-06 02:33N 37°57' E 023°35'0 0.0
2016-Feb-06 01:32N 37°57' E 023°35'0 0.0
2016-Feb-06 00:34N 37°57' E 023°35'0 0.0
2016-Feb-05 23:34N 37°57' E 023°35'0 0.0
2016-Feb-05 22:34N 37°57' E 023°35'0 0.0
2016-Feb-05 21:33N 37°57' E 023°35'2 2.3
2016-Feb-05 20:33N 37°56' E 023°37'0 0.0
2016-Feb-05 19:33N 37°56' E 023°37'2 2.0
2016-Feb-05 18:34N 37°57' E 023°35'2 1.7
2016-Feb-05 17:34N 37°55' E 023°35'2 1.9
2016-Feb-05 16:33N 37°57' E 023°35'1 1.1
2016-Feb-05 15:34N 37°57' E 023°37'0 0.0
2016-Feb-05 14:33N 37°57' E 023°37'0 0.0
2016-Feb-05 13:34N 37°57' E 023°37'1 0.7
2016-Feb-05 12:34N 37°57' E 023°36'0 0.3
2016-Feb-05 11:34N 37°57' E 023°36'1 1.0
2016-Feb-05 10:34N 37°56' E 023°36'1 1.4
2016-Feb-05 09:34N 37°57' E 023°36'0 0.4
2016-Feb-05 08:33N 37°57' E 023°35'2 1.9
2016-Feb-05 07:33N 37°56' E 023°37'2 0.1
2016-Feb-04 02:33N 37°57' E 023°35'5 4.5
2016-Feb-04 01:33N 38°01' E 023°36'0 0.0
2016-Feb-04 00:34N 38°01' E 023°35'0 0.0
2016-Feb-03 23:34N 38°01' E 023°36'0 0.0
2016-Feb-03 22:33N 38°01' E 023°36'0 0.0
2016-Feb-03 21:34N 38°01' E 023°36'0 0.0
2016-Feb-03 20:33N 38°01' E 023°36'0 0.0
2016-Feb-03 19:34N 38°01' E 023°36'0 0.0
2016-Feb-03 18:33N 38°01' E 023°35'0 0.0
2016-Feb-03 17:33N 38°01' E 023°36'0 0.0
2016-Feb-03 16:33N 38°01' E 023°36'0 0.0
2016-Feb-03 15:33N 38°01' E 023°36'0 0.0
2016-Feb-03 14:33N 38°01' E 023°36'0 0.0
2016-Feb-03 13:32N 38°01' E 023°36'0 0.0
2016-Feb-03 12:33N 38°01' E 023°36'0 0.0
2016-Feb-03 11:34N 38°01' E 023°36'0 0.0
2016-Feb-03 10:33N 38°01' E 023°36'0 0.0
2016-Feb-03 09:33N 38°01' E 023°36'0 0.0
2016-Feb-03 08:33N 38°01' E 023°36'0 0.0
2016-Feb-03 07:33N 38°01' E 023°36'0 0.0
2016-Feb-03 06:33N 38°01' E 023°36'0 0.0
2016-Feb-03 05:33N 38°01' E 023°36'0 0.0
2016-Feb-03 04:33N 38°01' E 023°36'0 0.0
2016-Feb-03 03:34N 38°01' E 023°36'0 0.0
2016-Feb-03 02:33N 38°01' E 023°36'0 0.0
2016-Feb-03 01:33N 38°01' E 023°36'0 0.0
2016-Feb-03 00:33N 38°01' E 023°36'0 0.0
2016-Feb-02 23:33N 38°01' E 023°36'0 0.0
2016-Feb-02 22:34N 38°01' E 023°36'0 0.0
2016-Feb-02 21:31N 38°01' E 023°36'0 0.0
2016-Feb-02 20:32N 38°01' E 023°36'0 0.0
2016-Feb-02 19:33N 38°01' E 023°36'0 0.0
2016-Feb-02 18:33N 38°01' E 023°36'0 0.0
2016-Feb-02 17:34N 38°01' E 023°36'0 0.0
2016-Feb-02 16:34N 38°01' E 023°36'0 0.0
2016-Feb-02 15:33N 38°01' E 023°36'0 0.0
2016-Feb-02 14:33N 38°01' E 023°36'0 0.0
2016-Feb-02 13:34N 38°01' E 023°36'4 4.3
2016-Feb-02 12:33N 37°57' E 023°36'0 0.0
2016-Feb-02 11:33N 37°57' E 023°36'1 0.9
2016-Feb-02 10:33N 37°57' E 023°35'1 0.9
2016-Feb-02 09:33N 37°57' E 023°36'0 0.0
2016-Feb-02 08:32N 37°57' E 023°36'1 1.4
2016-Feb-02 07:33N 37°56' E 023°37'0 0.0
2016-Feb-02 06:33N 37°56' E 023°37'0 0.0
2016-Feb-02 05:33N 37°56' E 023°37'0 0.1
2016-Feb-02 04:34N 37°56' E 023°37'0 0.1
2016-Feb-02 03:33N 37°56' E 023°37'0 0.0
2016-Feb-02 02:33N 37°56' E 023°37'0 0.0
2016-Feb-02 01:34N 37°56' E 023°37'0 0.0
2016-Feb-02 00:33N 37°56' E 023°37'0 0.0
2016-Feb-01 23:33N 37°56' E 023°37'0 0.0
2016-Feb-01 22:33N 37°56' E 023°37'0 0.0
2016-Feb-01 21:34N 37°56' E 023°37'0 0.0
2016-Feb-01 20:33N 37°56' E 023°37'1 0.7
2016-Feb-01 19:33N 37°56' E 023°37'1 1.0
2016-Feb-01 18:33N 37°57' E 023°37'0 0.0
2016-Feb-01 17:33N 37°57' E 023°37'1 1.2
2016-Feb-01 16:34N 37°57' E 023°35'1 1.2
2016-Feb-01 15:33N 37°57' E 023°37'0 0.0
2016-Feb-01 14:33N 37°57' E 023°37'0 0.0
2016-Feb-01 13:32N 37°57' E 023°37'0 0.0
2016-Feb-01 12:33N 37°57' E 023°37'1 1.1
2016-Feb-01 11:33N 37°57' E 023°35'1 0.9
2016-Feb-01 10:33N 37°57' E 023°36'1 1.1
2016-Feb-01 09:33N 37°57' E 023°35'1 1.1
2016-Feb-01 08:34N 37°57' E 023°36'0 0.2
2016-Feb-01 07:33N 37°57' E 023°36'1 0.9
2016-Feb-01 06:34N 37°56' E 023°37'0 0.5
2016-Feb-01 05:33N 37°56' E 023°37'0 0.0
2016-Feb-01 04:33N 37°56' E 023°37'0 0.0
2016-Feb-01 03:33N 37°56' E 023°37'0 0.0
2016-Jan-30 22:22N 37°56' E 023°37'2 2.5
2016-Jan-30 21:33N 37°56' E 023°35'2 2.1
2016-Jan-30 20:33N 37°57' E 023°37'0 0.0
2016-Jan-30 19:33N 37°57' E 023°37'0 0.0
2016-Jan-30 18:33N 37°57' E 023°37'0 0.0
2016-Jan-30 17:33N 37°57' E 023°37'0 0.0
2016-Jan-30 16:33N 37°57' E 023°37'0 0.0
2016-Jan-30 15:33N 37°57' E 023°37'0 0.0
2016-Jan-30 14:33N 37°57' E 023°37'2 1.6
2016-Jan-30 13:33N 37°57' E 023°35'1 1.0
2016-Jan-30 12:33N 37°57' E 023°36'2 1.6
2016-Jan-30 11:34N 37°56' E 023°36'1 0.9
2016-Jan-30 10:33N 37°56' E 023°37'0 0.0
2016-Jan-30 09:33N 37°56' E 023°37'0 0.0
2016-Jan-30 08:33N 37°56' E 023°37'0 0.0
2016-Jan-30 07:33N 37°56' E 023°37'0 0.0
2016-Jan-30 06:32N 37°56' E 023°37'0 0.0
2016-Jan-30 05:33N 37°56' E 023°37'0 0.0
2016-Jan-30 04:33N 37°56' E 023°37'0 0.0
2016-Jan-30 03:33N 37°56' E 023°37'2 2.0
2016-Jan-30 02:33N 37°56' E 023°35'2 1.7
2016-Jan-30 01:33N 37°57' E 023°37'0 0.0
2016-Jan-30 00:33N 37°57' E 023°37'0 0.0
2016-Jan-29 23:33N 37°57' E 023°37'0 0.0
2016-Jan-29 22:33N 37°57' E 023°37'0 0.0
2016-Jan-29 21:33N 37°57' E 023°37'0 0.0
2016-Jan-29 20:33N 37°57' E 023°37'0 0.0
2016-Jan-29 19:33N 37°57' E 023°37'0 0.0
2016-Jan-29 18:33N 37°57' E 023°37'0 0.0
2016-Jan-29 17:33N 37°57' E 023°37'0 0.0
2016-Jan-29 16:33N 37°57' E 023°37'0 0.0
2016-Jan-29 15:33N 37°57' E 023°37'0 0.0
2016-Jan-29 14:33N 37°57' E 023°37'1 0.6
2016-Jan-29 13:33N 37°57' E 023°36'1 0.6
2016-Jan-29 12:33N 37°57' E 023°37'0 0.0
2016-Jan-29 11:33N 37°57' E 023°37'0 0.3
2016-Jan-29 10:33N 37°57' E 023°36'1 1.1
2016-Jan-29 09:34N 37°57' E 023°35'1 1.0
2016-Jan-29 08:33N 37°56' E 023°36'1 1.5
2016-Jan-29 07:33N 37°56' E 023°37'  

Dump ship's entire track history